createdAt,value
2017-02-19T00:00:08.378Z,23.15
2017-02-19T00:00:48.885Z,23.19
2017-02-19T00:01:29.384Z,23.21
2017-02-19T00:02:09.886Z,23.14
2017-02-19T00:02:50.375Z,23.16
2017-02-19T00:03:30.880Z,23.22
2017-02-19T00:04:11.380Z,23.14
2017-02-19T00:04:51.877Z,23.15
2017-02-19T00:05:32.378Z,23.14
2017-02-19T00:06:12.876Z,23.16
2017-02-19T00:06:53.372Z,23.15
2017-02-19T00:07:33.881Z,23.16
2017-02-19T00:08:14.372Z,23.21
2017-02-19T00:08:54.871Z,23.16
2017-02-19T00:09:35.359Z,23.16
2017-02-19T00:10:15.861Z,23.16
2017-02-19T00:10:56.363Z,23.19
2017-02-19T00:11:36.874Z,23.14
2017-02-19T00:12:17.356Z,23.15
2017-02-19T00:12:57.849Z,23.12
2017-02-19T00:13:38.344Z,23.14
2017-02-19T00:14:18.839Z,23.09
2017-02-19T00:14:59.323Z,23.18
2017-02-19T00:15:39.837Z,23.16
2017-02-19T00:16:20.319Z,23.06
2017-02-19T00:17:00.809Z,23.12
2017-02-19T00:17:41.299Z,23.14
2017-02-19T00:18:21.817Z,23.1
2017-02-19T00:19:02.319Z,23.22
2017-02-19T00:19:42.816Z,23.16
2017-02-19T00:20:23.311Z,23.16
2017-02-19T00:21:03.803Z,23.25
2017-02-19T00:21:44.315Z,23.19
2017-02-19T00:22:24.814Z,23.18
2017-02-19T00:23:05.314Z,23.14
2017-02-19T00:23:45.793Z,23.18
2017-02-19T00:24:26.284Z,23.18
2017-02-19T00:25:06.766Z,23.15
2017-02-19T00:25:47.279Z,23.14
2017-02-19T00:26:27.765Z,23.24
2017-02-19T00:27:08.277Z,23.16
2017-02-19T00:27:48.774Z,23.24
2017-02-19T00:28:29.276Z,23.16
2017-02-19T00:29:09.757Z,23.14
2017-02-19T00:29:50.255Z,23.22
2017-02-19T00:30:30.742Z,23.16
2017-02-19T00:31:11.250Z,23.15
2017-02-19T00:31:51.751Z,23.24
2017-02-19T00:32:32.247Z,23.14
2017-02-19T00:33:12.750Z,23.19
2017-02-19T00:33:53.241Z,23.16
2017-02-19T00:34:33.747Z,23.18
2017-02-19T00:35:14.238Z,23.19
2017-02-19T00:35:54.745Z,23.16
2017-02-19T00:36:35.397Z,23.19
2017-02-19T00:37:15.882Z,23.21
2017-02-19T00:37:56.398Z,23.24
2017-02-19T00:38:36.885Z,23.16
2017-02-19T00:39:17.385Z,23.18
2017-02-19T00:39:57.883Z,23.19
2017-02-19T00:40:38.384Z,23.16
2017-02-19T00:41:18.885Z,23.22
2017-02-19T00:41:59.395Z,23.16
2017-02-19T00:42:39.878Z,23.14
2017-02-19T00:43:20.368Z,23.16
2017-02-19T00:44:00.865Z,23.19
2017-02-19T00:44:41.365Z,23.21
2017-02-19T00:45:21.858Z,23.14
2017-02-19T00:46:02.362Z,23.24
2017-02-19T00:46:42.845Z,23.19
2017-02-19T00:47:23.354Z,23.18
2017-02-19T00:48:03.841Z,23.14
2017-02-19T00:48:44.339Z,23.18
2017-02-19T00:49:24.823Z,23.18
2017-02-19T00:50:05.346Z,23.16
2017-02-19T00:50:45.840Z,23.16
2017-02-19T00:51:26.350Z,23.15
2017-02-19T00:52:06.836Z,23.24
2017-02-19T00:52:47.334Z,23.12
2017-02-19T00:53:27.832Z,23.14
2017-02-19T00:54:08.336Z,23.24
2017-02-19T00:54:48.831Z,23.18
2017-02-19T00:55:29.314Z,23.16
2017-02-19T00:56:09.832Z,23.19
2017-02-19T00:56:50.331Z,23.26
2017-02-19T00:57:30.817Z,23.22
2017-02-19T00:58:11.327Z,23.15
2017-02-19T00:58:51.825Z,23.22
2017-02-19T00:59:32.327Z,23.24
2017-02-19T01:00:12.825Z,23.22
2017-02-19T01:00:53.327Z,23.16
2017-02-19T01:01:33.822Z,23.21
2017-02-19T01:02:14.316Z,23.15
2017-02-19T01:02:54.821Z,23.22
2017-02-19T01:03:35.308Z,23.21
2017-02-19T01:04:15.799Z,23.24
2017-02-19T01:04:56.289Z,23.19
2017-02-19T01:05:36.792Z,23.16
2017-02-19T01:06:17.281Z,23.16
2017-02-19T01:06:57.796Z,23.14
2017-02-19T01:07:38.289Z,23.16
2017-02-19T01:08:18.789Z,23.18
2017-02-19T01:08:59.279Z,23.22
2017-02-19T01:09:39.793Z,23.19
2017-02-19T01:10:20.289Z,23.24
2017-02-19T01:11:00.785Z,23.22
2017-02-19T01:11:41.277Z,23.15
2017-02-19T01:12:21.790Z,23.21
2017-02-19T01:13:02.285Z,23.19
2017-02-19T01:13:42.786Z,23.22
2017-02-19T01:14:23.285Z,23.22
2017-02-19T01:15:03.824Z,23.18
2017-02-19T01:15:44.315Z,23.18
2017-02-19T01:16:24.816Z,23.19
2017-02-19T01:17:05.312Z,23.19
2017-02-19T01:17:46.648Z,23.22
2017-02-19T01:18:26.305Z,23.19
2017-02-19T01:19:06.803Z,23.19
2017-02-19T01:19:47.299Z,23.15
2017-02-19T01:20:27.797Z,23.14
2017-02-19T01:21:08.301Z,23.22
2017-02-19T01:21:48.808Z,23.19
2017-02-19T01:22:29.308Z,23.22
2017-02-19T01:23:09.793Z,23.25
2017-02-19T01:23:50.291Z,23.19
2017-02-19T01:24:30.793Z,23.28
2017-02-19T01:25:11.295Z,23.24
2017-02-19T01:25:51.798Z,23.32
2017-02-19T01:26:32.295Z,23.29
2017-02-19T01:27:12.801Z,23.26
2017-02-19T01:27:53.298Z,23.29
2017-02-19T01:28:33.799Z,23.26
2017-02-19T01:29:14.292Z,23.28
2017-02-19T01:29:54.785Z,23.18
2017-02-19T01:30:35.270Z,23.19
2017-02-19T01:31:15.765Z,23.29
2017-02-19T01:31:56.255Z,23.19
2017-02-19T01:32:36.763Z,23.28
2017-02-19T01:33:17.262Z,23.26
2017-02-19T01:33:57.761Z,23.26
2017-02-19T01:34:38.246Z,23.22
2017-02-19T01:35:18.739Z,23.19
2017-02-19T01:35:59.247Z,23.22
2017-02-19T01:36:39.738Z,23.19
2017-02-19T01:37:20.243Z,23.26
2017-02-19T01:38:00.738Z,23.28
2017-02-19T01:38:41.237Z,23.19
2017-02-19T01:39:21.733Z,23.19
2017-02-19T01:40:02.237Z,23.28
2017-02-19T01:40:42.733Z,23.37
2017-02-19T01:41:23.234Z,23.4
2017-02-19T01:42:03.719Z,23.32
2017-02-19T01:42:44.228Z,23.29
2017-02-19T01:43:24.717Z,23.29
2017-02-19T01:44:05.211Z,23.32
2017-02-19T01:44:45.705Z,23.28
2017-02-19T01:45:26.202Z,23.32
2017-02-19T01:46:06.690Z,23.19
2017-02-19T01:46:47.186Z,23.24
2017-02-19T01:47:27.680Z,23.22
2017-02-19T01:48:08.178Z,23.26
2017-02-19T01:48:48.667Z,23.16
2017-02-19T01:49:29.199Z,23.24
2017-02-19T01:50:09.674Z,23.29
2017-02-19T01:50:50.163Z,23.25
2017-02-19T01:51:30.651Z,23.18
2017-02-19T01:52:11.147Z,23.22
2017-02-19T01:52:51.650Z,23.25
2017-02-19T01:53:32.139Z,23.19
2017-02-19T01:54:12.640Z,23.24
2017-02-19T01:54:53.137Z,23.26
2017-02-19T01:55:33.639Z,23.22
2017-02-19T01:56:14.126Z,23.32
2017-02-19T01:56:54.639Z,23.34
2017-02-19T01:57:35.126Z,23.29
2017-02-19T01:58:15.637Z,23.25
2017-02-19T01:58:56.116Z,23.26
2017-02-19T01:59:36.607Z,23.32
2017-02-19T02:00:17.105Z,23.32
2017-02-19T02:00:57.603Z,23.34
2017-02-19T02:01:38.116Z,23.35
2017-02-19T02:02:18.611Z,23.32
2017-02-19T02:02:59.123Z,23.38
2017-02-19T02:03:39.618Z,23.29
2017-02-19T02:04:20.114Z,23.34
2017-02-19T02:05:00.615Z,23.22
2017-02-19T02:05:41.115Z,23.26
2017-02-19T02:06:21.611Z,23.29
2017-02-19T02:07:02.115Z,23.18
2017-02-19T02:07:42.600Z,23.34
2017-02-19T02:08:23.114Z,23.29
2017-02-19T02:09:03.612Z,23.25
2017-02-19T02:09:44.105Z,23.38
2017-02-19T02:10:24.660Z,23.16
2017-02-19T02:11:05.184Z,23.21
2017-02-19T02:11:45.669Z,23.24
2017-02-19T02:12:26.178Z,23.21
2017-02-19T02:13:06.667Z,23.28
2017-02-19T02:13:47.164Z,23.16
2017-02-19T02:14:27.658Z,23.24
2017-02-19T02:15:08.138Z,23.22
2017-02-19T02:15:48.627Z,23.19
2017-02-19T02:16:29.122Z,23.32
2017-02-19T02:17:09.623Z,23.29
2017-02-19T02:17:50.126Z,23.35
2017-02-19T02:18:30.624Z,23.32
2017-02-19T02:19:11.118Z,23.28
2017-02-19T02:19:51.613Z,23.25
2017-02-19T02:20:32.110Z,23.15
2017-02-19T02:21:12.613Z,23.32
2017-02-19T02:21:53.107Z,23.19
2017-02-19T02:22:33.621Z,23.19
2017-02-19T02:23:14.120Z,23.22
2017-02-19T02:23:54.616Z,23.24
2017-02-19T02:24:35.104Z,23.22
2017-02-19T02:25:15.598Z,23.24
2017-02-19T02:25:56.093Z,23.26
2017-02-19T02:26:36.587Z,23.21
2017-02-19T02:27:17.091Z,23.16
2017-02-19T02:27:57.584Z,23.25
2017-02-19T02:28:38.092Z,23.22
2017-02-19T02:29:18.591Z,23.26
2017-02-19T02:29:59.086Z,23.24
2017-02-19T02:30:39.571Z,23.26
2017-02-19T02:31:20.081Z,23.22
2017-02-19T02:32:00.573Z,23.19
2017-02-19T02:32:41.061Z,23.21
2017-02-19T02:33:21.559Z,23.24
2017-02-19T02:34:02.056Z,23.19
2017-02-19T02:34:42.537Z,23.32
2017-02-19T02:35:23.034Z,23.19
2017-02-19T02:36:03.538Z,23.19
2017-02-19T02:36:44.031Z,23.28
2017-02-19T02:37:24.521Z,23.18
2017-02-19T02:38:05.032Z,23.19
2017-02-19T02:38:45.524Z,23.22
2017-02-19T02:39:26.018Z,23.32
2017-02-19T02:40:06.509Z,23.25
2017-02-19T02:40:47.001Z,23.24
2017-02-19T02:41:27.496Z,23.16
2017-02-19T02:42:07.982Z,23.32
2017-02-19T02:42:48.476Z,23.24
2017-02-19T02:43:28.972Z,23.24
2017-02-19T02:44:09.469Z,23.26
2017-02-19T02:44:49.972Z,23.18
2017-02-19T02:45:30.470Z,23.14
2017-02-19T02:46:10.967Z,23.18
2017-02-19T02:46:51.458Z,23.24
2017-02-19T02:47:31.969Z,23.19
2017-02-19T02:48:12.466Z,23.29
2017-02-19T02:48:52.969Z,23.24
2017-02-19T02:49:33.465Z,23.34
2017-02-19T02:50:13.971Z,23.32
2017-02-19T02:50:54.469Z,23.28
2017-02-19T02:51:34.968Z,23.32
2017-02-19T02:52:15.444Z,23.26
2017-02-19T02:52:55.965Z,23.28
2017-02-19T02:53:36.469Z,23.29
2017-02-19T02:54:16.960Z,23.32
2017-02-19T02:54:57.447Z,23.28
2017-02-19T02:55:37.938Z,23.29
2017-02-19T02:56:18.432Z,23.35
2017-02-19T02:56:58.926Z,23.28
2017-02-19T02:57:39.410Z,23.24
2017-02-19T02:58:19.911Z,23.19
2017-02-19T02:59:00.409Z,23.18
2017-02-19T02:59:40.907Z,23.28
2017-02-19T03:00:21.400Z,23.26
2017-02-19T03:01:01.907Z,23.18
2017-02-19T03:01:42.451Z,23.32
2017-02-19T03:02:22.955Z,23.18
2017-02-19T03:04:35.762Z,23.26
2017-02-19T03:05:16.244Z,23.15
2017-02-19T03:05:56.733Z,23.15
2017-02-19T03:06:37.227Z,23.24
2017-02-19T03:07:17.718Z,23.32
2017-02-19T03:07:58.214Z,23.34
2017-02-19T03:08:38.715Z,23.25
2017-02-19T03:09:19.210Z,23.28
2017-02-19T03:09:59.712Z,23.37
2017-02-19T03:10:40.208Z,23.32
2017-02-19T03:11:20.712Z,23.28
2017-02-19T03:12:01.210Z,23.29
2017-02-19T03:12:41.699Z,23.32
2017-02-19T03:13:22.184Z,23.34
2017-02-19T03:14:02.667Z,23.26
2017-02-19T03:14:43.161Z,23.4
2017-02-19T03:15:23.656Z,23.32
2017-02-19T03:16:04.149Z,23.26
2017-02-19T03:16:44.755Z,23.29
2017-02-19T03:17:25.242Z,23.32
2017-02-19T03:18:05.733Z,23.28
2017-02-19T03:18:46.218Z,23.28
2017-02-19T03:19:26.721Z,23.28
2017-02-19T03:20:07.201Z,23.37
2017-02-19T03:20:47.687Z,23.19
2017-02-19T03:21:28.175Z,23.32
2017-02-19T03:22:08.659Z,23.28
2017-02-19T03:22:49.151Z,23.29
2017-02-19T03:23:29.649Z,23.38
2017-02-19T03:24:10.139Z,23.32
2017-02-19T03:24:50.639Z,23.29
2017-02-19T03:25:31.149Z,23.26
2017-02-19T03:26:11.655Z,23.26
2017-02-19T03:26:52.148Z,23.28
2017-02-19T03:27:32.644Z,23.32
2017-02-19T03:28:13.130Z,23.26
2017-02-19T03:28:53.618Z,23.37
2017-02-19T03:29:34.110Z,23.26
2017-02-19T03:30:14.615Z,23.4
2017-02-19T03:30:55.104Z,23.38
2017-02-19T03:31:35.597Z,23.37
2017-02-19T03:32:16.089Z,23.38
2017-02-19T03:32:56.570Z,23.37
2017-02-19T03:33:37.063Z,23.38
2017-02-19T03:34:17.543Z,23.28
2017-02-19T03:34:58.038Z,23.32
2017-02-19T03:35:38.535Z,23.18
2017-02-19T03:36:19.021Z,23.26
2017-02-19T03:36:59.530Z,23.15
2017-02-19T03:37:40.019Z,23.28
2017-02-19T03:38:20.527Z,23.28
2017-02-19T03:39:01.018Z,23.34
2017-02-19T03:39:41.527Z,23.28
2017-02-19T03:40:22.020Z,23.35
2017-02-19T03:41:02.509Z,23.29
2017-02-19T03:41:43.003Z,23.26
2017-02-19T03:42:23.500Z,23.32
2017-02-19T03:43:03.976Z,23.35
2017-02-19T03:43:44.463Z,23.32
2017-02-19T03:44:24.965Z,23.26
2017-02-19T03:45:05.477Z,23.32
2017-02-19T03:45:45.974Z,23.41
2017-02-19T03:46:26.464Z,23.37
2017-02-19T03:47:06.949Z,23.28
2017-02-19T03:47:47.438Z,23.29
2017-02-19T03:48:27.947Z,23.34
2017-02-19T03:49:08.439Z,23.26
2017-02-19T03:49:48.938Z,23.32
2017-02-19T03:50:29.519Z,23.32
2017-02-19T03:51:10.009Z,23.26
2017-02-19T03:51:50.495Z,23.32
2017-02-19T03:52:30.978Z,23.34
2017-02-19T03:53:11.470Z,23.28
2017-02-19T03:53:51.964Z,23.29
2017-02-19T03:54:32.458Z,23.28
2017-02-19T03:55:12.944Z,23.26
2017-02-19T03:55:53.437Z,23.19
2017-02-19T03:56:33.938Z,23.16
2017-02-19T03:57:14.429Z,23.21
2017-02-19T03:57:54.941Z,23.19
2017-02-19T03:58:35.426Z,23.25
2017-02-19T03:59:15.938Z,23.34
2017-02-19T03:59:56.434Z,23.34
2017-02-19T04:00:36.932Z,23.26
2017-02-19T04:01:17.410Z,23.32
2017-02-19T04:01:57.894Z,23.28
2017-02-19T04:02:38.384Z,23.32
2017-02-19T04:03:18.864Z,23.28
2017-02-19T04:03:59.361Z,23.32
2017-02-19T04:04:39.852Z,23.24
2017-02-19T04:05:20.342Z,23.37
2017-02-19T04:06:00.831Z,23.35
2017-02-19T04:06:41.325Z,23.26
2017-02-19T04:07:21.887Z,23.26
2017-02-19T04:08:02.380Z,23.28
2017-02-19T04:08:42.876Z,23.21
2017-02-19T04:09:23.368Z,23.28
2017-02-19T04:10:03.858Z,23.19
2017-02-19T04:10:44.346Z,23.26
2017-02-19T04:11:24.845Z,23.29
2017-02-19T04:12:05.339Z,23.25
2017-02-19T04:12:45.824Z,23.29
2017-02-19T04:13:26.316Z,23.26
2017-02-19T04:14:06.820Z,23.32
2017-02-19T04:14:47.296Z,23.26
2017-02-19T04:15:27.798Z,23.34
2017-02-19T04:16:08.293Z,23.28
2017-02-19T04:16:48.778Z,23.32
2017-02-19T04:17:29.270Z,23.38
2017-02-19T04:18:09.767Z,23.38
2017-02-19T04:18:50.264Z,23.29
2017-02-19T04:19:30.751Z,23.28
2017-02-19T04:20:11.247Z,23.29
2017-02-19T04:20:51.771Z,23.32
2017-02-19T04:21:32.234Z,23.26
2017-02-19T04:22:12.739Z,23.37
2017-02-19T04:22:53.232Z,23.37
2017-02-19T04:23:33.733Z,23.28
2017-02-19T04:24:14.256Z,23.37
2017-02-19T04:24:54.732Z,23.35
2017-02-19T04:25:35.251Z,23.37
2017-02-19T04:26:15.733Z,23.4
2017-02-19T04:26:56.219Z,23.4
2017-02-19T04:27:36.711Z,23.26
2017-02-19T04:28:17.209Z,23.28
2017-02-19T04:28:57.704Z,23.29
2017-02-19T04:29:38.184Z,23.24
2017-02-19T04:30:18.673Z,23.18
2017-02-19T04:30:59.159Z,23.22
2017-02-19T04:31:39.650Z,23.24
2017-02-19T04:32:20.143Z,23.29
2017-02-19T04:33:00.635Z,23.32
2017-02-19T04:33:41.124Z,23.32
2017-02-19T04:34:21.621Z,23.29
2017-02-19T04:35:02.114Z,23.24
2017-02-19T04:35:42.612Z,23.28
2017-02-19T04:36:23.107Z,23.32
2017-02-19T04:37:03.619Z,23.26
2017-02-19T04:37:44.112Z,23.26
2017-02-19T04:38:24.595Z,23.28
2017-02-19T04:39:05.088Z,23.28
2017-02-19T04:39:45.590Z,23.37
2017-02-19T04:40:26.074Z,23.32
2017-02-19T04:41:06.564Z,23.28
2017-02-19T04:41:47.064Z,23.28
2017-02-19T04:42:27.555Z,23.28
2017-02-19T04:43:08.039Z,23.35
2017-02-19T04:43:48.532Z,23.28
2017-02-19T04:44:29.039Z,23.32
2017-02-19T04:45:09.586Z,23.28
2017-02-19T04:45:50.074Z,23.32
2017-02-19T04:46:30.568Z,23.29
2017-02-19T04:47:11.059Z,23.34
2017-02-19T04:47:51.551Z,23.24
2017-02-19T04:48:32.062Z,23.26
2017-02-19T04:49:12.584Z,23.37
2017-02-19T04:49:53.070Z,23.32
2017-02-19T04:50:33.559Z,23.35
2017-02-19T04:51:14.054Z,23.37
2017-02-19T04:51:54.542Z,23.38
2017-02-19T04:52:35.029Z,23.37
2017-02-19T04:53:15.520Z,23.4
2017-02-19T04:53:56.024Z,23.38
2017-02-19T04:54:36.508Z,23.29
2017-02-19T04:55:17.003Z,23.4
2017-02-19T04:55:57.499Z,23.35
2017-02-19T04:56:37.991Z,23.37
2017-02-19T04:57:18.475Z,23.37
2017-02-19T04:57:59.024Z,23.4
2017-02-19T04:58:39.517Z,23.4
2017-02-19T04:59:20.013Z,23.38
2017-02-19T05:00:00.500Z,23.37
2017-02-19T05:00:40.985Z,23.37
2017-02-19T05:01:21.474Z,23.41
2017-02-19T05:02:01.968Z,23.37
2017-02-19T05:02:42.470Z,23.37
2017-02-19T05:03:22.951Z,23.45
2017-02-19T05:04:03.441Z,23.37
2017-02-19T05:04:43.941Z,23.4
2017-02-19T05:05:24.424Z,23.4
2017-02-19T05:06:04.917Z,23.35
2017-02-19T05:06:45.409Z,23.35
2017-02-19T05:07:25.910Z,23.34
2017-02-19T05:08:06.396Z,23.4
2017-02-19T05:08:46.888Z,23.32
2017-02-19T05:09:27.386Z,23.35
2017-02-19T05:10:07.871Z,23.4
2017-02-19T05:10:48.359Z,23.37
2017-02-19T05:11:28.854Z,23.4
2017-02-19T05:12:09.351Z,23.37
2017-02-19T05:12:49.837Z,23.35
2017-02-19T05:13:30.330Z,23.32
2017-02-19T05:14:10.830Z,23.35
2017-02-19T05:14:51.318Z,23.38
2017-02-19T05:15:31.817Z,23.26
2017-02-19T05:16:12.305Z,23.32
2017-02-19T05:16:52.795Z,23.4
2017-02-19T05:17:33.284Z,23.34
2017-02-19T05:18:13.776Z,23.41
2017-02-19T05:18:54.270Z,23.38
2017-02-19T05:19:34.770Z,23.26
2017-02-19T05:20:15.266Z,23.28
2017-02-19T05:20:55.768Z,23.29
2017-02-19T05:21:36.269Z,23.38
2017-02-19T05:22:16.762Z,23.37
2017-02-19T05:22:57.275Z,23.32
2017-02-19T05:23:37.761Z,23.32
2017-02-19T05:24:18.266Z,23.26
2017-02-19T05:24:58.764Z,23.26
2017-02-19T05:25:39.269Z,23.32
2017-02-19T05:26:19.766Z,23.28
2017-02-19T05:27:00.263Z,23.35
2017-02-19T05:27:40.767Z,23.32
2017-02-19T05:28:21.263Z,23.26
2017-02-19T05:29:01.766Z,23.32
2017-02-19T05:29:42.260Z,23.28
2017-02-19T05:30:22.758Z,23.26
2017-02-19T05:31:03.264Z,23.32
2017-02-19T05:31:43.749Z,23.35
2017-02-19T05:32:24.249Z,23.24
2017-02-19T05:33:04.733Z,23.32
2017-02-19T05:33:45.228Z,23.26
2017-02-19T05:34:25.710Z,23.32
2017-02-19T05:35:06.193Z,23.29
2017-02-19T05:35:46.683Z,23.25
2017-02-19T05:36:27.175Z,23.34
2017-02-19T05:37:07.674Z,23.32
2017-02-19T05:37:48.155Z,23.28
2017-02-19T05:38:28.640Z,23.34
2017-02-19T05:39:09.127Z,23.38
2017-02-19T05:39:49.623Z,23.26
2017-02-19T05:40:30.126Z,23.37
2017-02-19T05:41:10.599Z,23.38
2017-02-19T05:41:51.100Z,23.26
2017-02-19T05:42:31.601Z,23.29
2017-02-19T05:43:12.091Z,23.34
2017-02-19T05:43:52.577Z,23.38
2017-02-19T05:44:33.070Z,23.35
2017-02-19T05:45:13.567Z,23.32
2017-02-19T05:45:54.051Z,23.26
2017-02-19T05:46:34.549Z,23.26
2017-02-19T05:47:15.029Z,23.29
2017-02-19T05:47:55.534Z,23.32
2017-02-19T05:48:36.043Z,23.26
2017-02-19T05:49:16.530Z,23.37
2017-02-19T05:49:57.033Z,23.28
2017-02-19T05:50:37.534Z,23.26
2017-02-19T05:51:18.043Z,23.26
2017-02-19T05:51:58.545Z,23.34
2017-02-19T05:52:39.034Z,23.24
2017-02-19T05:53:19.527Z,23.28
2017-02-19T05:54:00.013Z,23.26
2017-02-19T05:54:40.508Z,23.26
2017-02-19T05:55:21.006Z,23.32
2017-02-19T05:56:01.488Z,23.24
2017-02-19T05:56:41.974Z,23.26
2017-02-19T05:57:22.476Z,23.25
2017-02-19T05:58:02.976Z,23.12
2017-02-19T05:58:43.483Z,23.26
2017-02-19T05:59:23.972Z,23.16
2017-02-19T06:00:04.478Z,23.19
2017-02-19T06:00:44.967Z,23.26
2017-02-19T06:01:25.471Z,23.19
2017-02-19T06:02:05.977Z,23.34
2017-02-19T06:02:46.479Z,23.29
2017-02-19T06:03:26.970Z,23.29
2017-02-19T06:04:07.470Z,23.29
2017-02-19T06:04:47.977Z,23.28
2017-02-19T06:05:28.479Z,23.26
2017-02-19T06:06:08.969Z,23.21
2017-02-19T06:06:49.480Z,23.29
2017-02-19T06:07:29.972Z,23.32
2017-02-19T06:08:10.458Z,23.29
2017-02-19T06:08:50.968Z,23.32
2017-02-19T06:09:31.478Z,23.32
2017-02-19T06:10:11.973Z,23.32
2017-02-19T06:10:52.470Z,23.28
2017-02-19T06:11:32.961Z,23.35
2017-02-19T06:12:13.468Z,23.38
2017-02-19T06:12:53.961Z,23.4
2017-02-19T06:13:34.462Z,23.26
2017-02-19T06:14:14.962Z,23.38
2017-02-19T06:14:55.464Z,23.29
2017-02-19T06:15:35.949Z,23.28
2017-02-19T06:16:16.444Z,23.32
2017-02-19T06:16:56.930Z,23.38
2017-02-19T06:17:37.420Z,23.29
2017-02-19T06:18:17.912Z,23.28
2017-02-19T06:18:58.404Z,23.32
2017-02-19T06:19:38.888Z,23.34
2017-02-19T06:20:19.373Z,23.22
2017-02-19T06:20:59.878Z,23.26
2017-02-19T06:21:40.357Z,23.28
2017-02-19T06:22:20.855Z,23.32
2017-02-19T06:23:01.354Z,23.29
2017-02-19T06:23:41.849Z,23.37
2017-02-19T06:24:22.331Z,23.28
2017-02-19T06:25:02.827Z,23.32
2017-02-19T06:25:43.335Z,23.26
2017-02-19T06:26:23.815Z,23.38
2017-02-19T06:27:04.330Z,23.32
2017-02-19T06:27:44.826Z,23.32
2017-02-19T06:28:25.324Z,23.28
2017-02-19T06:29:05.813Z,23.35
2017-02-19T06:29:46.306Z,23.26
2017-02-19T06:30:26.822Z,23.4
2017-02-19T06:31:07.316Z,23.35
2017-02-19T06:31:47.806Z,23.4
2017-02-19T06:32:28.291Z,23.34
2017-02-19T06:33:08.789Z,23.29
2017-02-19T06:33:49.283Z,23.34
2017-02-19T06:34:29.772Z,23.32
2017-02-19T06:35:10.267Z,23.38
2017-02-19T06:35:50.761Z,23.37
2017-02-19T06:36:31.254Z,23.38
2017-02-19T06:37:11.747Z,23.38
2017-02-19T06:37:52.237Z,23.4
2017-02-19T06:38:32.738Z,23.38
2017-02-19T06:39:13.238Z,23.37
2017-02-19T06:39:53.732Z,23.28
2017-02-19T06:40:34.215Z,23.37
2017-02-19T06:41:14.711Z,23.4
2017-02-19T06:41:55.207Z,23.37
2017-02-19T06:42:35.693Z,23.4
2017-02-19T06:43:16.187Z,23.37
2017-02-19T06:43:56.684Z,23.4
2017-02-19T06:44:37.167Z,23.32
2017-02-19T06:45:17.655Z,23.29
2017-02-19T06:45:58.148Z,23.34
2017-02-19T06:46:38.651Z,23.34
2017-02-19T06:47:19.142Z,23.26
2017-02-19T06:47:59.635Z,23.38
2017-02-19T06:48:40.136Z,23.29
2017-02-19T06:49:20.631Z,23.26
2017-02-19T06:50:01.129Z,23.38
2017-02-19T06:50:41.620Z,23.32
2017-02-19T06:51:22.121Z,23.4
2017-02-19T06:52:02.620Z,23.34
2017-02-19T06:52:43.111Z,23.4
2017-02-19T06:53:23.599Z,23.35
2017-02-19T06:54:04.093Z,23.41
2017-02-19T06:54:44.576Z,23.4
2017-02-19T06:55:25.075Z,23.29
2017-02-19T06:56:05.571Z,23.32
2017-02-19T06:56:46.071Z,23.26
2017-02-19T06:57:26.569Z,23.35
2017-02-19T06:58:07.065Z,23.38
2017-02-19T06:58:47.568Z,23.4
2017-02-19T06:59:28.064Z,23.37
2017-02-19T07:00:08.564Z,23.4
2017-02-19T07:00:49.054Z,23.4
2017-02-19T07:01:29.539Z,23.41
2017-02-19T07:02:10.026Z,23.37
2017-02-19T07:02:50.538Z,23.34
2017-02-19T07:03:31.035Z,23.41
2017-02-19T07:04:11.535Z,23.37
2017-02-19T07:04:52.036Z,23.4
2017-02-19T07:05:32.531Z,23.29
2017-02-19T07:06:13.020Z,23.38
2017-02-19T07:06:53.538Z,23.37
2017-02-19T07:07:34.032Z,23.4
2017-02-19T07:08:14.530Z,23.42
2017-02-19T07:08:55.009Z,23.34
2017-02-19T07:09:35.507Z,23.29
2017-02-19T07:10:16.004Z,23.29
2017-02-19T07:10:56.500Z,23.32
2017-02-19T07:11:37.008Z,23.32
2017-02-19T07:12:17.502Z,23.34
2017-02-19T07:12:58.007Z,23.35
2017-02-19T07:13:38.498Z,23.34
2017-02-19T07:14:19.003Z,23.4
2017-02-19T07:14:59.494Z,23.4
2017-02-19T07:15:39.994Z,23.4
2017-02-19T07:16:20.493Z,23.4
2017-02-19T07:17:00.976Z,23.41
2017-02-19T07:17:41.472Z,23.38
2017-02-19T07:18:22.118Z,23.41
2017-02-19T07:19:02.624Z,23.34
2017-02-19T07:19:43.107Z,23.35
2017-02-19T07:20:23.602Z,23.38
2017-02-19T07:21:04.099Z,23.32
2017-02-19T07:21:44.584Z,23.35
2017-02-19T07:22:25.075Z,23.4
2017-02-19T07:23:05.571Z,23.41
2017-02-19T07:23:46.069Z,23.44
2017-02-19T07:24:26.552Z,23.37
2017-02-19T07:25:07.047Z,23.45
2017-02-19T07:25:47.540Z,23.52
2017-02-19T07:26:28.044Z,23.42
2017-02-19T07:27:08.537Z,23.41
2017-02-19T07:27:49.027Z,23.4
2017-02-19T07:28:29.517Z,23.56
2017-02-19T07:29:10.014Z,23.55
2017-02-19T07:29:50.513Z,23.5
2017-02-19T07:30:31.012Z,23.56
2017-02-19T07:31:11.511Z,23.48
2017-02-19T07:31:52.003Z,23.55
2017-02-19T07:32:32.510Z,23.56
2017-02-19T07:33:12.990Z,23.47
2017-02-19T07:33:53.486Z,23.5
2017-02-19T07:34:33.984Z,23.57
2017-02-19T07:35:14.535Z,23.55
2017-02-19T07:35:55.039Z,23.56
2017-02-19T07:36:35.538Z,23.5
2017-02-19T07:37:16.035Z,23.47
2017-02-19T07:37:56.534Z,23.57
2017-02-19T07:38:37.023Z,23.48
2017-02-19T07:39:17.523Z,23.47
2017-02-19T07:39:58.028Z,23.52
2017-02-19T07:40:38.529Z,23.5
2017-02-19T07:41:19.027Z,23.55
2017-02-19T07:41:59.532Z,23.52
2017-02-19T07:42:40.023Z,23.5
2017-02-19T07:43:20.525Z,23.48
2017-02-19T07:44:01.011Z,23.5
2017-02-19T07:44:41.500Z,23.5
2017-02-19T07:45:21.983Z,23.48
2017-02-19T07:46:02.476Z,23.41
2017-02-19T07:46:42.973Z,23.56
2017-02-19T07:47:23.464Z,23.53
2017-02-19T07:48:03.967Z,23.48
2017-02-19T07:48:44.463Z,23.48
2017-02-19T07:49:24.948Z,23.52
2017-02-19T07:50:05.444Z,23.52
2017-02-19T07:50:45.937Z,23.55
2017-02-19T07:51:26.430Z,23.45
2017-02-19T07:52:06.924Z,23.55
2017-02-19T07:52:47.415Z,23.55
2017-02-19T07:53:27.912Z,23.53
2017-02-19T07:54:08.416Z,23.55
2017-02-19T07:54:48.918Z,23.47
2017-02-19T07:55:29.413Z,23.53
2017-02-19T07:56:09.906Z,23.56
2017-02-19T07:56:50.414Z,23.5
2017-02-19T07:57:30.899Z,23.5
2017-02-19T07:58:11.386Z,23.53
2017-02-19T07:58:51.884Z,23.56
2017-02-19T07:59:32.386Z,23.45
2017-02-19T08:00:12.876Z,23.47
2017-02-19T08:00:53.380Z,23.47
2017-02-19T08:01:33.858Z,23.53
2017-02-19T08:02:14.351Z,23.44
2017-02-19T08:02:54.859Z,23.47
2017-02-19T08:03:35.347Z,23.47
2017-02-19T08:04:15.852Z,23.56
2017-02-19T08:04:56.342Z,23.5
2017-02-19T08:05:36.844Z,23.59
2017-02-19T08:06:17.339Z,23.52
2017-02-19T08:06:57.847Z,23.47
2017-02-19T08:07:38.347Z,23.53
2017-02-19T08:08:18.851Z,23.53
2017-02-19T08:08:59.352Z,23.53
2017-02-19T08:09:39.847Z,23.57
2017-02-19T08:10:20.338Z,23.55
2017-02-19T08:11:00.824Z,23.5
2017-02-19T08:11:41.318Z,23.52
2017-02-19T08:12:21.823Z,23.55
2017-02-19T08:13:02.301Z,23.59
2017-02-19T08:13:42.797Z,23.56
2017-02-19T08:14:23.298Z,23.59
2017-02-19T08:15:03.796Z,23.56
2017-02-19T08:15:44.291Z,23.59
2017-02-19T08:16:24.778Z,23.57
2017-02-19T08:17:05.297Z,23.56
2017-02-19T08:17:45.794Z,23.52
2017-02-19T08:18:26.290Z,23.56
2017-02-19T08:19:06.791Z,23.57
2017-02-19T08:19:47.292Z,23.56
2017-02-19T08:20:27.783Z,23.52
2017-02-19T08:21:08.289Z,23.56
2017-02-19T08:21:48.789Z,23.57
2017-02-19T08:22:29.287Z,23.53
2017-02-19T08:23:09.780Z,23.57
2017-02-19T08:23:50.298Z,23.59
2017-02-19T08:24:30.822Z,23.56
2017-02-19T08:25:11.306Z,23.55
2017-02-19T08:25:51.803Z,23.57
2017-02-19T08:26:32.291Z,23.56
2017-02-19T08:27:12.790Z,23.55
2017-02-19T08:27:53.285Z,23.56
2017-02-19T08:28:33.759Z,23.57
2017-02-19T08:29:14.254Z,23.56
2017-02-19T08:29:54.749Z,23.59
2017-02-19T08:30:35.248Z,23.59
2017-02-19T08:31:15.827Z,23.59
2017-02-19T08:31:56.317Z,23.56
2017-02-19T08:32:36.823Z,23.59
2017-02-19T08:33:17.328Z,23.59
2017-02-19T08:33:57.824Z,23.59
2017-02-19T08:34:38.319Z,23.56
2017-02-19T08:35:18.818Z,23.56
2017-02-19T08:35:59.305Z,23.55
2017-02-19T08:36:39.793Z,23.53
2017-02-19T08:37:20.286Z,23.59
2017-02-19T08:38:00.804Z,23.48
2017-02-19T08:38:41.283Z,23.53
2017-02-19T08:39:21.795Z,23.48
2017-02-19T08:40:02.280Z,23.47
2017-02-19T08:40:42.775Z,23.47
2017-02-19T08:41:23.272Z,23.5
2017-02-19T08:42:03.762Z,23.48
2017-02-19T08:42:44.272Z,23.5
2017-02-19T08:43:24.771Z,23.56
2017-02-19T08:44:05.265Z,23.48